createdAt,value
2022-07-26T00:01:55.987Z,45.92
2022-07-26T00:04:00.974Z,45.79
2022-07-26T00:06:05.627Z,46.05
2022-07-26T00:08:13.442Z,46.04
2022-07-26T00:10:20.743Z,45.91
2022-07-26T00:12:25.859Z,46.25
2022-07-26T00:14:30.797Z,45.80
2022-07-26T00:16:39.353Z,45.52
2022-07-26T00:18:44.861Z,45.97
2022-07-26T00:20:49.993Z,45.81
2022-07-26T00:22:55.435Z,45.29
2022-07-26T00:25:00.122Z,45.72
2022-07-26T00:27:05.018Z,46.06
2022-07-26T00:29:10.302Z,46.36
2022-07-26T00:31:15.661Z,46.53
2022-07-26T00:33:22.837Z,46.53
2022-07-26T00:35:28.334Z,46.43
2022-07-26T00:37:33.728Z,46.04
2022-07-26T00:39:38.677Z,46.18
2022-07-26T00:41:43.587Z,46.31
2022-07-26T00:43:59.477Z,46.44
2022-07-26T00:46:04.909Z,46.93
2022-07-26T00:48:10.206Z,47.16
2022-07-26T00:50:21.800Z,47.16
2022-07-26T00:52:26.959Z,47.10
2022-07-26T00:54:31.692Z,47.89
2022-07-26T00:56:37.366Z,47.94
2022-07-26T00:58:42.230Z,47.72
2022-07-26T01:00:49.845Z,47.96
2022-07-26T01:02:54.810Z,47.89
2022-07-26T01:04:59.841Z,47.67
2022-07-26T01:07:14.770Z,48.07
2022-07-26T01:09:21.809Z,47.70
2022-07-26T01:11:26.653Z,48.10
2022-07-26T01:13:35.087Z,47.89
2022-07-26T01:15:40.872Z,48.01
2022-07-26T01:17:47.493Z,47.83
2022-07-26T01:19:52.352Z,48.38
2022-07-26T01:21:59.892Z,48.67
2022-07-26T01:24:05.497Z,48.44
2022-07-26T01:26:11.343Z,48.26
2022-07-26T01:28:19.617Z,48.16
2022-07-26T01:30:25.132Z,47.68
2022-07-26T01:32:29.976Z,47.70
2022-07-26T01:34:35.424Z,47.83
2022-07-26T01:36:40.252Z,48.02
2022-07-26T01:38:48.058Z,47.37
2022-07-26T01:40:52.921Z,47.46
2022-07-26T01:42:57.855Z,47.59
2022-07-26T01:45:02.822Z,47.90
2022-07-26T01:47:07.545Z,48.34
2022-07-26T01:49:12.622Z,48.65
2022-07-26T01:51:17.780Z,49.08
2022-07-26T01:53:24.562Z,49.06
2022-07-26T01:55:32.063Z,49.69
2022-07-26T01:57:37.939Z,49.35
2022-07-26T01:59:42.883Z,49.51
2022-07-26T02:01:47.897Z,49.53
2022-07-26T02:03:52.902Z,49.44
2022-07-26T02:05:57.746Z,49.32
2022-07-26T02:08:02.706Z,49.50
2022-07-26T02:10:08.739Z,49.12
2022-07-26T02:12:21.618Z,49.47
2022-07-26T02:14:28.026Z,49.57
2022-07-26T02:16:33.072Z,49.71
2022-07-26T02:18:38.429Z,49.52
2022-07-26T02:20:43.382Z,49.73
2022-07-26T02:22:48.242Z,49.61
2022-07-26T02:24:53.396Z,49.30
2022-07-26T02:26:58.601Z,49.38
2022-07-26T02:29:05.925Z,49.41
2022-07-26T02:31:11.678Z,49.22
2022-07-26T02:33:21.525Z,49.69
2022-07-26T02:35:26.475Z,49.65
2022-07-26T02:37:31.341Z,49.13
2022-07-26T02:39:41.410Z,49.33
2022-07-26T02:41:46.494Z,49.25
2022-07-26T02:43:51.338Z,49.13
2022-07-26T02:46:01.727Z,49.20
2022-07-26T02:48:07.691Z,49.21
2022-07-26T02:50:13.511Z,49.03
2022-07-26T02:52:18.444Z,49.06
2022-07-26T02:54:23.312Z,49.91
2022-07-26T02:56:28.340Z,49.88
2022-07-26T02:58:32.977Z,50.22
2022-07-26T03:00:37.836Z,50.03
2022-07-26T03:02:45.624Z,50.09
2022-07-26T03:04:50.533Z,49.94
2022-07-26T03:06:55.454Z,50.01
2022-07-26T03:09:00.357Z,49.53
2022-07-26T03:11:08.990Z,49.87
2022-07-26T03:13:16.758Z,49.48
2022-07-26T03:15:21.358Z,49.27
2022-07-26T03:17:26.563Z,49.29
2022-07-26T03:19:34.090Z,49.28
2022-07-26T03:21:39.031Z,49.10
2022-07-26T03:23:43.846Z,49.08
2022-07-26T03:25:48.667Z,49.05
2022-07-26T03:27:53.582Z,49.03
2022-07-26T03:29:59.065Z,48.80
2022-07-26T03:32:03.676Z,48.87
2022-07-26T03:34:08.992Z,49.00
2022-07-26T03:36:16.687Z,49.04
2022-07-26T03:38:21.626Z,48.58
2022-07-26T03:40:26.337Z,48.69
2022-07-26T03:42:31.126Z,48.65
2022-07-26T03:44:35.999Z,48.45
2022-07-26T03:46:40.958Z,48.33
2022-07-26T03:48:45.630Z,48.37
2022-07-26T03:50:53.573Z,48.25
2022-07-26T03:53:01.039Z,48.22
2022-07-26T03:55:26.375Z,47.96
2022-07-26T03:57:28.671Z,47.76
2022-07-26T03:59:33.536Z,48.08
2022-07-26T04:01:41.827Z,47.93
2022-07-26T04:03:47.908Z,48.19
2022-07-26T04:05:52.955Z,48.17
2022-07-26T04:08:00.428Z,47.83
2022-07-26T04:10:05.402Z,47.87
2022-07-26T04:12:10.410Z,48.41
2022-07-26T04:14:15.116Z,47.76
2022-07-26T04:16:20.088Z,48.26
2022-07-26T04:18:24.800Z,48.23
2022-07-26T04:20:29.773Z,48.42
2022-07-26T04:22:34.652Z,47.99
2022-07-26T04:24:42.083Z,48.11
2022-07-26T04:26:46.997Z,47.88
2022-07-26T04:28:52.095Z,47.94
2022-07-26T04:30:56.781Z,47.56
2022-07-26T04:33:01.662Z,48.06
2022-07-26T04:35:07.044Z,47.80
2022-07-26T04:37:11.933Z,47.80
2022-07-26T04:39:16.901Z,47.95
2022-07-26T04:41:24.269Z,47.77
2022-07-26T04:43:29.377Z,47.99
2022-07-26T04:45:34.258Z,47.28
2022-07-26T04:47:39.404Z,47.32
2022-07-26T04:49:44.640Z,47.48
2022-07-26T04:51:49.519Z,47.25
2022-07-26T04:53:54.386Z,47.20
2022-07-26T04:55:59.243Z,46.96
2022-07-26T04:58:06.842Z,47.77
2022-07-26T05:00:23.764Z,47.36
2022-07-26T05:02:29.249Z,47.25
2022-07-26T05:04:33.873Z,46.79
2022-07-26T05:06:39.157Z,47.07
2022-07-26T05:08:44.393Z,47.25
2022-07-26T05:10:55.220Z,47.41
2022-07-26T05:13:01.049Z,47.53
2022-07-26T05:15:14.051Z,47.81
2022-07-26T05:17:19.486Z,47.12
2022-07-26T05:19:24.768Z,47.50
2022-07-26T05:21:30.310Z,47.04
2022-07-26T05:23:35.270Z,47.23
2022-07-26T05:25:41.621Z,46.96
2022-07-26T05:27:47.091Z,47.07
2022-07-26T05:29:52.009Z,47.41
2022-07-26T05:31:59.468Z,47.06
2022-07-26T05:34:04.431Z,47.20
2022-07-26T05:36:09.905Z,47.06
2022-07-26T05:38:17.228Z,46.75
2022-07-26T05:40:22.615Z,46.85
2022-07-26T05:42:28.184Z,46.72
2022-07-26T05:44:33.069Z,46.84
2022-07-26T05:46:37.949Z,46.84
2022-07-26T05:48:45.344Z,46.93
2022-07-26T05:50:50.317Z,47.15
2022-07-26T05:52:55.193Z,46.89
2022-07-26T05:55:00.033Z,47.35
2022-07-26T05:57:05.034Z,47.35
2022-07-26T05:59:09.871Z,47.73
2022-07-26T06:01:14.720Z,47.99
2022-07-26T06:03:26.005Z,48.19
2022-07-26T06:05:33.556Z,48.17
2022-07-26T06:07:38.526Z,48.36
2022-07-26T06:09:43.149Z,48.30
2022-07-26T06:11:48.261Z,48.51
2022-07-26T06:13:56.575Z,47.91
2022-07-26T06:16:01.596Z,48.26
2022-07-26T06:18:06.659Z,48.12
2022-07-26T06:20:12.143Z,48.01
2022-07-26T06:22:21.296Z,47.71
2022-07-26T06:24:26.452Z,47.61
2022-07-26T06:26:31.362Z,48.37
2022-07-26T06:28:38.609Z,48.42
2022-07-26T06:30:43.566Z,48.55
2022-07-26T06:32:51.312Z,49.18
2022-07-26T06:34:56.141Z,49.36
2022-07-26T06:37:01.201Z,49.46
2022-07-26T06:39:08.535Z,49.73
2022-07-26T06:41:13.452Z,49.66
2022-07-26T06:43:18.530Z,49.85
2022-07-26T06:45:23.419Z,50.34
2022-07-26T06:47:29.031Z,49.95
2022-07-26T06:49:33.915Z,50.13
2022-07-26T06:51:39.004Z,49.84
2022-07-26T06:53:44.442Z,49.24
2022-07-26T06:55:51.981Z,49.77
2022-07-26T06:57:56.800Z,49.35
2022-07-26T07:00:01.700Z,48.43
2022-07-26T07:02:06.933Z,48.41
2022-07-26T07:04:12.219Z,48.36
2022-07-26T07:06:20.008Z,47.99
2022-07-26T07:08:25.000Z,48.50
2022-07-26T07:10:30.019Z,48.45
2022-07-26T07:12:37.623Z,47.33
2022-07-26T07:14:42.861Z,47.02
2022-07-26T07:16:47.798Z,46.52
2022-07-26T07:18:52.577Z,45.88
2022-07-26T07:20:57.431Z,45.13
2022-07-26T07:23:02.307Z,45.21
2022-07-26T07:25:08.205Z,45.25
2022-07-26T07:27:13.448Z,45.14
2022-07-26T07:29:23.266Z,44.04
2022-07-26T07:31:28.815Z,43.67
2022-07-26T07:33:43.690Z,43.54
2022-07-26T07:35:57.785Z,43.46
2022-07-26T07:38:03.220Z,41.15
2022-07-26T07:40:08.684Z,41.01
2022-07-26T07:42:13.571Z,40.28
2022-07-26T07:44:19.567Z,39.78
2022-07-26T07:46:31.410Z,39.63
2022-07-26T07:48:36.468Z,39.58
2022-07-26T07:50:41.349Z,39.21
2022-07-26T07:52:46.334Z,39.01
2022-07-26T07:54:56.193Z,39.67
2022-07-26T07:57:11.503Z,39.61
2022-07-26T07:59:18.576Z,39.30
2022-07-26T08:01:39.479Z,38.88
2022-07-26T08:03:45.759Z,37.74
2022-07-26T08:05:55.620Z,38.02
2022-07-26T08:08:00.575Z,38.23
2022-07-26T08:10:05.757Z,37.59
2022-07-26T08:12:20.114Z,37.42
2022-07-26T08:14:24.943Z,37.23
2022-07-26T08:16:32.889Z,36.80
2022-07-26T08:18:53.383Z,37.03
2022-07-26T08:21:03.478Z,36.75
2022-07-26T08:23:08.949Z,37.20
2022-07-26T08:25:13.847Z,37.01
2022-07-26T08:27:18.724Z,36.51
2022-07-26T08:29:23.608Z,36.39
2022-07-26T08:31:33.954Z,36.69
2022-07-26T08:33:40.549Z,36.64
2022-07-26T08:35:46.050Z,36.55
2022-07-26T08:37:51.105Z,36.65
2022-07-26T08:39:56.062Z,36.56
2022-07-26T08:42:01.949Z,37.23
2022-07-26T08:44:10.995Z,37.97
2022-07-26T08:46:16.009Z,37.32
2022-07-26T08:48:23.278Z,37.18
2022-07-26T08:50:29.610Z,37.02
2022-07-26T08:52:34.619Z,36.99
2022-07-26T08:54:39.987Z,35.95
2022-07-26T08:56:53.973Z,35.69
2022-07-26T08:58:58.939Z,35.76
2022-07-26T09:01:09.075Z,35.71
2022-07-26T09:03:32.106Z,34.49
2022-07-26T09:05:40.048Z,34.65
2022-07-26T09:07:45.380Z,34.77
2022-07-26T09:10:00.781Z,34.58
2022-07-26T09:12:20.495Z,34.54
2022-07-26T09:14:25.829Z,34.80
2022-07-26T09:16:34.953Z,33.93
2022-07-26T09:18:44.923Z,34.12
2022-07-26T09:20:50.775Z,34.40
2022-07-26T09:23:05.114Z,34.73
2022-07-26T09:25:26.174Z,34.73
2022-07-26T09:27:38.732Z,36.04
2022-07-26T09:29:48.511Z,35.71
2022-07-26T09:31:53.436Z,35.79
2022-07-26T09:34:01.086Z,35.33
2022-07-26T09:36:08.743Z,33.88
2022-07-26T09:38:17.363Z,33.11
2022-07-26T09:40:22.519Z,32.13
2022-07-26T09:42:29.674Z,32.87
2022-07-26T09:44:34.886Z,33.40
2022-07-26T09:46:56.537Z,32.89
2022-07-26T09:49:22.327Z,35.94
2022-07-26T09:51:49.147Z,36.84
2022-07-26T09:53:53.939Z,37.60
2022-07-26T09:56:00.089Z,37.89
2022-07-26T09:58:06.630Z,37.61
2022-07-26T10:00:13.065Z,37.15
2022-07-26T10:02:18.731Z,36.75
2022-07-26T10:04:27.338Z,36.41
2022-07-26T10:06:32.224Z,35.69
2022-07-26T10:08:37.354Z,36.14
2022-07-26T10:10:46.627Z,34.96
2022-07-26T10:12:54.538Z,34.48
2022-07-26T10:15:00.167Z,33.79
2022-07-26T10:17:05.737Z,32.99
2022-07-26T10:19:10.573Z,33.47
2022-07-26T10:21:30.409Z,33.38
2022-07-26T10:23:40.027Z,33.53
2022-07-26T10:25:50.424Z,33.70
2022-07-26T10:27:58.051Z,33.81
2022-07-26T10:30:33.332Z,32.90
2022-07-26T10:32:39.656Z,32.92
2022-07-26T10:34:45.044Z,32.36
2022-07-26T10:37:01.051Z,31.40
2022-07-26T10:39:14.885Z,31.11
2022-07-26T10:41:37.892Z,30.55
2022-07-26T10:43:45.843Z,30.84
2022-07-26T10:45:51.886Z,30.34
2022-07-26T10:48:16.721Z,30.31
2022-07-26T10:50:34.793Z,30.71
2022-07-26T10:53:01.677Z,29.88
2022-07-26T10:55:13.593Z,29.13
2022-07-26T10:57:21.602Z,29.22
2022-07-26T10:59:55.239Z,29.21
2022-07-26T11:02:01.630Z,29.86
2022-07-26T11:04:22.648Z,29.98
2022-07-26T11:06:32.967Z,29.34
2022-07-26T11:08:48.129Z,28.85
2022-07-26T11:10:55.914Z,28.90
2022-07-26T11:13:09.686Z,28.64
2022-07-26T11:15:25.560Z,28.96
2022-07-26T11:17:32.841Z,28.75
2022-07-26T11:19:46.325Z,28.78
2022-07-26T11:22:03.092Z,28.89
2022-07-26T11:24:11.460Z,28.17
2022-07-26T11:26:20.593Z,28.01
2022-07-26T11:28:25.513Z,28.35
2022-07-26T11:30:33.975Z,27.57
2022-07-26T11:32:39.046Z,27.76
2022-07-26T11:34:45.707Z,27.46
2022-07-26T11:36:51.248Z,27.76
2022-07-26T11:39:10.568Z,27.56
2022-07-26T11:41:34.457Z,26.88
2022-07-26T11:43:40.693Z,27.48
2022-07-26T11:45:51.935Z,27.73
2022-07-26T11:48:02.718Z,28.07
2022-07-26T11:50:21.874Z,27.27
2022-07-26T11:52:36.151Z,27.17
2022-07-26T11:54:48.133Z,27.68
2022-07-26T11:56:59.779Z,28.36
2022-07-26T11:59:07.363Z,28.38
2022-07-26T12:01:22.101Z,27.99
2022-07-26T12:03:26.966Z,27.93
2022-07-26T12:05:35.658Z,28.15
2022-07-26T12:07:40.639Z,27.79
2022-07-26T12:09:45.905Z,27.31
2022-07-26T12:11:55.836Z,27.73
2022-07-26T12:14:06.206Z,27.34
2022-07-26T12:16:19.579Z,27.35
2022-07-26T12:18:28.159Z,26.54
2022-07-26T12:20:33.892Z,26.80
2022-07-26T12:22:46.408Z,26.97
2022-07-26T12:25:02.000Z,27.55
2022-07-26T12:27:16.573Z,28.35
2022-07-26T12:29:35.629Z,28.45
2022-07-26T12:31:40.558Z,28.00
2022-07-26T12:33:50.789Z,28.06
2022-07-26T12:36:01.221Z,27.67
2022-07-26T12:38:06.336Z,27.71
2022-07-26T12:40:16.213Z,27.60
2022-07-26T12:42:34.121Z,27.64
2022-07-26T12:44:39.593Z,27.20
2022-07-26T12:46:45.023Z,27.34
2022-07-26T12:48:50.307Z,27.07
2022-07-26T12:50:55.245Z,26.47
2022-07-26T12:53:02.685Z,26.05
2022-07-26T12:55:10.406Z,26.28
2022-07-26T12:57:15.312Z,25.38
2022-07-26T12:59:24.829Z,26.52
2022-07-26T13:01:30.133Z,27.35
2022-07-26T13:03:35.152Z,27.90
2022-07-26T13:05:40.030Z,28.18
2022-07-26T13:07:44.729Z,28.62
2022-07-26T13:10:08.269Z,28.81
2022-07-26T13:12:16.994Z,28.32
2022-07-26T13:14:24.455Z,27.89
2022-07-26T13:16:29.398Z,28.39
2022-07-26T13:18:34.064Z,28.82
2022-07-26T13:20:40.040Z,28.26
2022-07-26T13:22:44.900Z,27.98
2022-07-26T13:24:49.548Z,28.17
2022-07-26T13:26:54.908Z,28.01
2022-07-26T13:29:00.345Z,28.05
2022-07-26T13:31:08.541Z,28.73
2022-07-26T13:33:16.764Z,29.11
2022-07-26T13:35:24.604Z,29.62
2022-07-26T13:37:29.896Z,29.34
2022-07-26T13:39:34.715Z,29.70
2022-07-26T13:41:39.757Z,29.93
2022-07-26T13:43:44.405Z,30.20
2022-07-26T13:45:49.333Z,28.99
2022-07-26T13:47:56.530Z,28.65
2022-07-26T13:50:01.391Z,29.23
2022-07-26T13:52:15.550Z,28.86
2022-07-26T13:54:22.529Z,27.88
2022-07-26T13:56:27.428Z,27.38
2022-07-26T13:58:32.721Z,27.21
2022-07-26T14:00:37.663Z,27.18
2022-07-26T14:02:42.492Z,26.21
2022-07-26T14:04:50.518Z,26.56
2022-07-26T14:06:55.674Z,25.77
2022-07-26T14:09:00.678Z,25.26
2022-07-26T14:11:05.589Z,25.61
2022-07-26T14:13:10.517Z,24.69
2022-07-26T14:15:21.207Z,24.43
2022-07-26T14:17:27.304Z,24.36
2022-07-26T14:19:31.932Z,23.89
2022-07-26T14:21:48.968Z,24.03
2022-07-26T14:24:05.400Z,23.50
2022-07-26T14:26:10.240Z,22.99
2022-07-26T14:28:14.832Z,22.72
2022-07-26T14:30:19.937Z,22.30
2022-07-26T14:32:24.803Z,22.67
2022-07-26T14:34:29.433Z,22.85
2022-07-26T14:36:34.478Z,23.33
2022-07-26T14:38:41.925Z,23.22
2022-07-26T14:40:47.697Z,22.91
2022-07-26T14:42:52.639Z,23.23
2022-07-26T14:44:57.509Z,23.07
2022-07-26T14:47:02.093Z,23.17
2022-07-26T14:49:11.999Z,22.40
2022-07-26T14:51:16.680Z,22.21
2022-07-26T14:53:22.378Z,21.93
2022-07-26T14:55:29.954Z,21.09
2022-07-26T14:57:39.059Z,20.93
2022-07-26T14:59:44.871Z,21.04
2022-07-26T15:01:49.525Z,21.04
2022-07-26T15:03:54.376Z,20.97
2022-07-26T15:05:59.018Z,20.44
2022-07-26T15:08:06.219Z,20.52
2022-07-26T15:10:13.164Z,18.67
2022-07-26T15:12:21.700Z,18.99
2022-07-26T15:14:28.488Z,18.95
2022-07-26T15:16:33.782Z,19.34
2022-07-26T15:18:38.810Z,19.08
2022-07-26T15:20:44.501Z,18.65
2022-07-26T15:22:51.609Z,18.38
2022-07-26T15:24:56.482Z,18.28
2022-07-26T15:27:01.531Z,18.50
2022-07-26T15:29:08.952Z,17.84
2022-07-26T15:31:14.009Z,18.13
2022-07-26T15:33:20.679Z,18.49
2022-07-26T15:35:25.616Z,18.96
2022-07-26T15:37:30.625Z,19.23
2022-07-26T15:39:35.944Z,19.69
2022-07-26T15:41:41.056Z,20.14
2022-07-26T15:43:48.811Z,20.02
2022-07-26T15:46:05.470Z,19.85
2022-07-26T15:48:16.076Z,19.87
2022-07-26T15:50:23.166Z,19.58
2022-07-26T15:52:28.072Z,20.09
2022-07-26T15:54:33.087Z,19.62
2022-07-26T15:56:38.018Z,19.13
2022-07-26T15:58:42.868Z,19.69
2022-07-26T16:00:51.118Z,20.16
2022-07-26T16:02:58.574Z,19.98
2022-07-26T16:05:03.480Z,19.91
2022-07-26T16:07:08.685Z,20.28
2022-07-26T16:09:17.306Z,20.95
2022-07-26T16:11:23.474Z,21.00
2022-07-26T16:13:28.337Z,21.26
2022-07-26T16:15:33.232Z,21.15
2022-07-26T16:17:38.226Z,21.50
2022-07-26T16:19:45.873Z,21.48
2022-07-26T16:21:50.757Z,21.91
2022-07-26T16:23:55.638Z,21.97
2022-07-26T16:26:00.577Z,22.45
2022-07-26T16:28:06.192Z,22.47
2022-07-26T16:30:12.522Z,22.52
2022-07-26T16:32:21.290Z,22.55
2022-07-26T16:34:26.765Z,23.02
2022-07-26T16:36:34.115Z,23.04
2022-07-26T16:38:38.953Z,23.23
2022-07-26T16:40:43.554Z,23.41
2022-07-26T16:42:48.439Z,23.36
2022-07-26T16:44:53.630Z,24.09
2022-07-26T16:46:58.926Z,25.04
2022-07-26T16:49:03.823Z,25.13
2022-07-26T16:51:09.958Z,25.32
2022-07-26T16:53:21.286Z,25.51
2022-07-26T16:55:26.302Z,25.54
2022-07-26T16:57:31.098Z,26.21
2022-07-26T16:59:35.988Z,25.81
2022-07-26T17:01:43.566Z,25.86
2022-07-26T17:03:48.465Z,26.25
2022-07-26T17:05:53.154Z,26.09
2022-07-26T17:07:58.223Z,26.80
2022-07-26T17:10:07.562Z,26.82
2022-07-26T17:12:12.729Z,26.82
2022-07-26T17:14:20.715Z,26.84
2022-07-26T17:16:25.611Z,26.91
2022-07-26T17:18:30.191Z,27.35
2022-07-26T17:20:35.147Z,27.36
2022-07-26T17:22:39.784Z,27.87
2022-07-26T17:24:44.640Z,27.74
2022-07-26T17:26:51.890Z,27.81
2022-07-26T17:28:56.756Z,28.14
2022-07-26T17:31:01.557Z,27.91
2022-07-26T17:33:06.745Z,28.36
2022-07-26T17:35:12.089Z,28.53
2022-07-26T17:37:17.149Z,28.68
2022-07-26T17:39:28.349Z,28.51
2022-07-26T17:41:53.736Z,28.60
2022-07-26T17:43:58.750Z,29.13
2022-07-26T17:46:03.373Z,28.96
2022-07-26T17:48:09.187Z,29.19
2022-07-26T17:50:35.243Z,29.29
2022-07-26T17:52:39.160Z,29.69
2022-07-26T17:54:44.079Z,29.95
2022-07-26T17:56:49.714Z,30.31
2022-07-26T17:58:57.156Z,30.12
2022-07-26T18:01:02.052Z,30.00
2022-07-26T18:03:06.979Z,30.19
2022-07-26T18:05:12.859Z,30.08
2022-07-26T18:07:20.950Z,30.41
2022-07-26T18:09:25.986Z,30.60
2022-07-26T18:11:30.569Z,30.91
2022-07-26T18:13:35.617Z,30.74
2022-07-26T18:15:43.367Z,30.82
2022-07-26T18:17:48.335Z,30.96
2022-07-26T18:19:52.961Z,31.00
2022-07-26T18:21:59.195Z,31.34
2022-07-26T18:24:16.927Z,31.03
2022-07-26T18:26:22.036Z,31.12
2022-07-26T18:28:26.722Z,31.44
2022-07-26T18:30:32.264Z,31.40
2022-07-26T18:32:39.812Z,31.24
2022-07-26T18:34:51.556Z,31.57
2022-07-26T18:36:57.679Z,31.64
2022-07-26T18:39:02.727Z,31.58
2022-07-26T18:41:07.693Z,31.85
2022-07-26T18:43:12.691Z,31.21
2022-07-26T18:45:17.547Z,31.54
2022-07-26T18:47:25.486Z,31.50
2022-07-26T18:49:34.202Z,32.06
2022-07-26T18:51:41.046Z,31.80
2022-07-26T18:53:46.595Z,31.83
2022-07-26T18:55:51.716Z,31.94
2022-07-26T18:57:56.728Z,32.12
2022-07-26T19:00:01.635Z,31.62
2022-07-26T19:02:06.671Z,31.94
2022-07-26T19:04:11.382Z,32.09
2022-07-26T19:06:18.919Z,32.25
2022-07-26T19:08:23.762Z,32.22
2022-07-26T19:10:28.661Z,32.51
2022-07-26T19:12:33.575Z,32.33
2022-07-26T19:14:38.547Z,32.82
2022-07-26T19:16:43.656Z,32.98
2022-07-26T19:18:50.804Z,32.82
2022-07-26T19:20:57.748Z,32.73
2022-07-26T19:23:05.077Z,32.76
2022-07-26T19:25:14.796Z,32.77
2022-07-26T19:27:19.840Z,32.83
2022-07-26T19:29:25.317Z,32.99
2022-07-26T19:31:32.366Z,32.85
2022-07-26T19:33:41.085Z,32.87
2022-07-26T19:35:45.989Z,32.75
2022-07-26T19:37:51.495Z,33.15
2022-07-26T19:40:01.002Z,32.71
2022-07-26T19:42:05.937Z,33.20
2022-07-26T19:44:10.908Z,33.02
2022-07-26T19:46:15.935Z,33.38
2022-07-26T19:48:21.223Z,33.58
2022-07-26T19:50:26.116Z,33.47
2022-07-26T19:52:31.414Z,33.66
2022-07-26T19:54:36.448Z,33.56
2022-07-26T19:56:43.760Z,33.68
2022-07-26T19:58:49.492Z,33.93
2022-07-26T20:00:54.488Z,33.93
2022-07-26T20:02:59.381Z,33.95
2022-07-26T20:05:04.129Z,33.94
2022-07-26T20:07:09.034Z,34.29
2022-07-26T20:09:14.300Z,34.02
2022-07-26T20:11:22.850Z,33.97
2022-07-26T20:13:30.413Z,34.07
2022-07-26T20:15:35.340Z,34.31
2022-07-26T20:17:41.493Z,34.46
2022-07-26T20:19:46.482Z,34.31
2022-07-26T20:21:51.204Z,34.96
2022-07-26T20:23:56.032Z,34.71
2022-07-26T20:26:00.947Z,35.00
2022-07-26T20:28:06.361Z,35.00
2022-07-26T20:30:14.964Z,35.01
2022-07-26T20:32:20.351Z,35.25
2022-07-26T20:34:25.257Z,35.03
2022-07-26T20:36:30.115Z,35.37
2022-07-26T20:38:35.196Z,35.39
2022-07-26T20:40:39.855Z,35.51
2022-07-26T20:42:44.866Z,35.90
2022-07-26T20:44:52.853Z,35.76
2022-07-26T20:47:00.478Z,35.73
2022-07-26T20:49:05.368Z,35.99
2022-07-26T20:51:13.735Z,35.83
2022-07-26T20:53:18.904Z,36.20
2022-07-26T20:55:24.127Z,36.11
2022-07-26T20:57:29.095Z,35.92
2022-07-26T20:59:35.105Z,36.09
2022-07-26T21:01:40.519Z,35.87
2022-07-26T21:03:51.790Z,35.67
2022-07-26T21:05:56.669Z,35.67
2022-07-26T21:08:01.587Z,35.75
2022-07-26T21:10:07.230Z,35.64
2022-07-26T21:12:12.943Z,35.50
2022-07-26T21:14:17.989Z,35.69
2022-07-26T21:16:23.930Z,36.01
2022-07-26T21:18:30.056Z,36.50
2022-07-26T21:20:37.657Z,36.13
2022-07-26T21:22:42.524Z,36.51
2022-07-26T21:24:47.427Z,36.82
2022-07-26T21:26:52.385Z,36.85
2022-07-26T21:28:57.637Z,36.68
2022-07-26T21:31:02.504Z,36.93
2022-07-26T21:33:07.997Z,36.95
2022-07-26T21:35:12.985Z,36.86
2022-07-26T21:37:20.848Z,36.80
2022-07-26T21:39:25.781Z,36.72
2022-07-26T21:41:30.532Z,36.69
2022-07-26T21:43:35.386Z,36.93
2022-07-26T21:45:41.152Z,37.17
2022-07-26T21:47:45.779Z,37.39
2022-07-26T21:49:50.750Z,37.34
2022-07-26T21:51:55.667Z,36.97
2022-07-26T21:54:03.376Z,37.66
2022-07-26T21:56:08.415Z,37.75
2022-07-26T21:58:15.877Z,38.05
2022-07-26T22:00:21.044Z,37.82
2022-07-26T22:02:26.029Z,37.92
2022-07-26T22:04:30.926Z,38.03
2022-07-26T22:06:35.884Z,38.14
2022-07-26T22:08:40.942Z,38.01
2022-07-26T22:10:48.188Z,38.26
2022-07-26T22:12:53.698Z,38.24
2022-07-26T22:14:58.571Z,38.55
2022-07-26T22:17:03.561Z,38.51
2022-07-26T22:19:08.924Z,38.45
2022-07-26T22:21:14.307Z,38.60
2022-07-26T22:23:20.325Z,38.50
2022-07-26T22:25:25.392Z,38.88
2022-07-26T22:27:32.651Z,38.86
2022-07-26T22:29:39.934Z,39.16
2022-07-26T22:31:45.139Z,39.22
2022-07-26T22:33:50.059Z,39.68
2022-07-26T22:35:55.409Z,39.95
2022-07-26T22:38:05.036Z,40.01
2022-07-26T22:40:11.136Z,40.32
2022-07-26T22:42:16.321Z,40.27
2022-07-26T22:44:24.074Z,40.41
2022-07-26T22:46:29.363Z,40.48
2022-07-26T22:48:38.110Z,41.02
2022-07-26T22:50:44.330Z,41.04
2022-07-26T22:52:49.259Z,41.72
2022-07-26T22:54:54.112Z,41.78
2022-07-26T22:56:58.981Z,42.04
2022-07-26T22:59:03.975Z,42.21
2022-07-26T23:01:11.615Z,42.25
2022-07-26T23:03:19.999Z,42.21
2022-07-26T23:05:36.040Z,42.37
2022-07-26T23:07:50.623Z,42.56
2022-07-26T23:09:55.940Z,42.36
2022-07-26T23:12:00.881Z,42.31
2022-07-26T23:14:05.787Z,42.99
2022-07-26T23:16:13.466Z,42.99
2022-07-26T23:18:20.844Z,42.94
2022-07-26T23:20:25.753Z,42.77
2022-07-26T23:22:30.672Z,42.68
2022-07-26T23:24:35.560Z,43.24
2022-07-26T23:26:40.957Z,42.86
2022-07-26T23:28:45.779Z,42.97
2022-07-26T23:30:50.678Z,42.94
2022-07-26T23:32:58.145Z,43.32
2022-07-26T23:35:02.965Z,43.45
2022-07-26T23:37:07.891Z,43.41
2022-07-26T23:39:13.178Z,43.56
2022-07-26T23:41:19.086Z,43.58
2022-07-26T23:43:24.041Z,43.38
2022-07-26T23:45:28.906Z,43.46
2022-07-26T23:47:33.959Z,44.05
2022-07-26T23:49:41.424Z,44.48
2022-07-26T23:51:48.426Z,44.32
2022-07-26T23:53:53.804Z,44.94
2022-07-26T23:55:58.771Z,44.99
2022-07-26T23:58:04.807Z,45.27
